sensor_id;sensor_type;location;lat;lon;timestamp;pressure;altitude;pressure_sealevel;temperature;humidity
35553;BME280;21656;46.054;13.614;2023-01-28T00:00:32;100555.72;;;3.39;62.57
35553;BME280;21656;46.054;13.614;2023-01-28T00:02:58;100554.44;;;3.46;62.90
35553;BME280;21656;46.054;13.614;2023-01-28T00:05:23;100550.88;;;3.47;62.56
35553;BME280;21656;46.054;13.614;2023-01-28T00:07:49;100543.78;;;3.46;62.38
35553;BME280;21656;46.054;13.614;2023-01-28T00:10:16;100543.03;;;3.44;61.57
35553;BME280;21656;46.054;13.614;2023-01-28T00:12:41;100536.75;;;3.45;62.51
35553;BME280;21656;46.054;13.614;2023-01-28T00:15:07;100540.38;;;3.44;62.73
35553;BME280;21656;46.054;13.614;2023-01-28T00:17:33;100546.97;;;3.55;62.69
35553;BME280;21656;46.054;13.614;2023-01-28T00:20:00;100540.63;;;3.57;62.89
35553;BME280;21656;46.054;13.614;2023-01-28T00:22:26;100550.88;;;3.47;62.35
35553;BME280;21656;46.054;13.614;2023-01-28T00:24:51;100559.94;;;3.43;63.31
35553;BME280;21656;46.054;13.614;2023-01-28T00:27:17;100553.38;;;3.32;63.92
35553;BME280;21656;46.054;13.614;2023-01-28T00:29:42;100559.69;;;3.12;65.55
35553;BME280;21656;46.054;13.614;2023-01-28T00:32:07;100550.19;;;3.06;65.21
35553;BME280;21656;46.054;13.614;2023-01-28T00:34:33;100545.09;;;3.01;66.79
35553;BME280;21656;46.054;13.614;2023-01-28T00:36:58;100553.50;;;2.92;66.00
35553;BME280;21656;46.054;13.614;2023-01-28T00:39:24;100550.69;;;2.95;66.07
35553;BME280;21656;46.054;13.614;2023-01-28T00:41:51;100551.19;;;3.03;67.05
35553;BME280;21656;46.054;13.614;2023-01-28T00:44:17;100556.81;;;2.97;66.92
35553;BME280;21656;46.054;13.614;2023-01-28T00:46:43;100546.00;;;3.00;67.67
35553;BME280;21656;46.054;13.614;2023-01-28T00:49:08;100558.69;;;2.95;68.67
35553;BME280;21656;46.054;13.614;2023-01-28T00:51:34;100553.81;;;2.86;69.42
35553;BME280;21656;46.054;13.614;2023-01-28T00:53:59;100550.13;;;2.89;68.67
35553;BME280;21656;46.054;13.614;2023-01-28T00:56:25;100558.22;;;2.86;68.66
35553;BME280;21656;46.054;13.614;2023-01-28T00:58:50;100550.63;;;2.78;69.71
35553;BME280;21656;46.054;13.614;2023-01-28T01:01:19;100558.38;;;2.64;69.52
35553;BME280;21656;46.054;13.614;2023-01-28T01:03:45;100556.28;;;2.70;70.84
35553;BME280;21656;46.054;13.614;2023-01-28T01:06:13;100566.25;;;2.46;70.89
35553;BME280;21656;46.054;13.614;2023-01-28T01:08:38;100562.28;;;2.36;72.05
35553;BME280;21656;46.054;13.614;2023-01-28T01:11:08;100554.56;;;2.09;74.78
35553;BME280;21656;46.054;13.614;2023-01-28T01:13:34;100559.81;;;1.90;77.13
35553;BME280;21656;46.054;13.614;2023-01-28T01:16:24;100566.56;;;1.77;77.58
35553;BME280;21656;46.054;13.614;2023-01-28T01:18:51;100556.94;;;1.74;78.85
35553;BME280;21656;46.054;13.614;2023-01-28T01:21:18;100564.13;;;1.72;80.85
35553;BME280;21656;46.054;13.614;2023-01-28T01:23:45;100564.38;;;1.44;83.56
35553;BME280;21656;46.054;13.614;2023-01-28T01:26:11;100572.41;;;1.43;85.25
35553;BME280;21656;46.054;13.614;2023-01-28T01:28:37;100567.31;;;1.37;86.52
35553;BME280;21656;46.054;13.614;2023-01-28T01:31:05;100568.75;;;1.23;87.61
35553;BME280;21656;46.054;13.614;2023-01-28T01:33:31;100582.47;;;1.35;88.17
35553;BME280;21656;46.054;13.614;2023-01-28T01:35:57;100581.41;;;1.39;87.70
35553;BME280;21656;46.054;13.614;2023-01-28T01:38:24;100582.06;;;1.44;87.57
35553;BME280;21656;46.054;13.614;2023-01-28T01:40:49;100588.63;;;1.35;87.36
35553;BME280;21656;46.054;13.614;2023-01-28T01:43:20;100588.75;;;1.32;87.98
35553;BME280;21656;46.054;13.614;2023-01-28T01:45:58;100589.44;;;1.37;88.42
35553;BME280;21656;46.054;13.614;2023-01-28T01:48:27;100599.16;;;1.37;88.64
35553;BME280;21656;46.054;13.614;2023-01-28T01:50:59;100595.59;;;1.38;87.91
35553;BME280;21656;46.054;13.614;2023-01-28T01:53:27;100603.50;;;1.17;88.01
35553;BME280;21656;46.054;13.614;2023-01-28T01:55:59;100603.03;;;1.06;89.19
35553;BME280;21656;46.054;13.614;2023-01-28T01:58:30;100608.03;;;1.14;89.91
35553;BME280;21656;46.054;13.614;2023-01-28T02:00:57;100615.03;;;0.93;90.91
35553;BME280;21656;46.054;13.614;2023-01-28T02:03:53;100616.53;;;1.00;91.55
35553;BME280;21656;46.054;13.614;2023-01-28T02:06:19;100612.72;;;1.07;92.09
35553;BME280;21656;46.054;13.614;2023-01-28T02:08:46;100611.75;;;1.10;92.73
35553;BME280;21656;46.054;13.614;2023-01-28T02:11:13;100615.25;;;1.10;92.40
35553;BME280;21656;46.054;13.614;2023-01-28T02:13:41;100612.66;;;1.08;92.96
35553;BME280;21656;46.054;13.614;2023-01-28T02:16:09;100615.25;;;1.10;92.52
35553;BME280;21656;46.054;13.614;2023-01-28T02:18:36;100610.19;;;1.04;92.28
35553;BME280;21656;46.054;13.614;2023-01-28T02:24:23;100615.94;;;1.15;92.85
35553;BME280;21656;46.054;13.614;2023-01-28T02:37:37;100609.13;;;1.08;92.13
35553;BME280;21656;46.054;13.614;2023-01-28T02:40:17;100603.31;;;0.75;95.11
35553;BME280;21656;46.054;13.614;2023-01-28T02:42:44;100610.81;;;0.87;96.45
35553;BME280;21656;46.054;13.614;2023-01-28T02:45:23;100605.13;;;0.74;96.98
35553;BME280;21656;46.054;13.614;2023-01-28T02:47:50;100610.94;;;0.84;97.53
35553;BME280;21656;46.054;13.614;2023-01-28T02:50:26;100609.03;;;0.88;97.53
35553;BME280;21656;46.054;13.614;2023-01-28T02:53:13;100612.81;;;0.80;97.69
35553;BME280;21656;46.054;13.614;2023-01-28T02:56:24;100613.66;;;0.82;96.75
35553;BME280;21656;46.054;13.614;2023-01-28T03:02:03;100622.56;;;0.80;95.38
35553;BME280;21656;46.054;13.614;2023-01-28T03:04:37;100618.00;;;0.83;97.28
35553;BME280;21656;46.054;13.614;2023-01-28T03:07:08;100624.53;;;0.75;96.88
35553;BME280;21656;46.054;13.614;2023-01-28T03:09:34;100628.81;;;0.79;96.96
35553;BME280;21656;46.054;13.614;2023-01-28T03:12:06;100622.63;;;0.78;96.30
35553;BME280;21656;46.054;13.614;2023-01-28T03:15:05;100637.47;;;0.59;96.04
35553;BME280;21656;46.054;13.614;2023-01-28T08:54:13;100874.25;;;3.40;89.93
35553;BME280;21656;46.054;13.614;2023-01-28T08:56:40;100877.59;;;3.25;86.78
35553;BME280;21656;46.054;13.614;2023-01-28T08:59:14;100877.44;;;3.28;85.74
35553;BME280;21656;46.054;13.614;2023-01-28T09:01:40;100879.44;;;3.43;86.77
35553;BME280;21656;46.054;13.614;2023-01-28T09:04:06;100872.53;;;3.60;85.74
35553;BME280;21656;46.054;13.614;2023-01-28T09:06:33;100877.16;;;3.75;81.32
35553;BME280;21656;46.054;13.614;2023-01-28T09:08:59;100888.13;;;3.88;82.13
35553;BME280;21656;46.054;13.614;2023-01-28T09:11:26;100885.47;;;4.07;80.36
35553;BME280;21656;46.054;13.614;2023-01-28T09:13:51;100893.41;;;4.08;80.42
35553;BME280;21656;46.054;13.614;2023-01-28T09:16:17;100885.91;;;4.17;79.26
35553;BME280;21656;46.054;13.614;2023-01-28T09:18:43;100886.34;;;4.26;76.49
35553;BME280;21656;46.054;13.614;2023-01-28T09:21:09;100887.84;;;4.32;73.96
35553;BME280;21656;46.054;13.614;2023-01-28T09:23:38;100891.97;;;4.39;72.38
35553;BME280;21656;46.054;13.614;2023-01-28T09:26:05;100890.81;;;4.45;70.86
35553;BME280;21656;46.054;13.614;2023-01-28T09:28:31;100893.09;;;4.52;71.65
35553;BME280;21656;46.054;13.614;2023-01-28T09:31:06;100896.63;;;4.72;69.94
35553;BME280;21656;46.054;13.614;2023-01-28T09:33:32;100895.16;;;4.84;69.18
35553;BME280;21656;46.054;13.614;2023-01-28T09:36:00;100887.56;;;5.11;69.05
35553;BME280;21656;46.054;13.614;2023-01-28T09:38:26;100890.97;;;5.32;67.13
35553;BME280;21656;46.054;13.614;2023-01-28T09:40:51;100886.63;;;5.47;65.56
35553;BME280;21656;46.054;13.614;2023-01-28T09:43:48;100890.47;;;5.58;64.26
35553;BME280;21656;46.054;13.614;2023-01-28T09:46:16;100896.50;;;5.62;63.04
35553;BME280;21656;46.054;13.614;2023-01-28T09:48:49;100891.25;;;5.60;61.97
35553;BME280;21656;46.054;13.614;2023-01-28T09:53:57;100893.97;;;5.94;62.54
35553;BME280;21656;46.054;13.614;2023-01-28T09:56:30;100881.91;;;6.02;58.79
35553;BME280;21656;46.054;13.614;2023-01-28T09:59:14;100886.84;;;6.10;59.63
35553;BME280;21656;46.054;13.614;2023-01-28T10:01:52;100889.88;;;6.20;59.78
35553;BME280;21656;46.054;13.614;2023-01-28T10:04:35;100885.25;;;6.23;58.86
35553;BME280;21656;46.054;13.614;2023-01-28T10:17:44;100887.44;;;6.48;57.67
35553;BME280;21656;46.054;13.614;2023-01-28T10:25:23;100886.66;;;6.31;56.19
35553;BME280;21656;46.054;13.614;2023-01-28T10:27:50;100890.78;;;6.20;55.98
35553;BME280;21656;46.054;13.614;2023-01-28T10:32:48;100881.38;;;6.45;55.96
35553;BME280;21656;46.054;13.614;2023-01-28T10:35:15;100879.91;;;6.71;56.03
35553;BME280;21656;46.054;13.614;2023-01-28T10:37:41;100889.88;;;6.83;55.43
35553;BME280;21656;46.054;13.614;2023-01-28T10:40:13;100888.31;;;6.95;55.41
35553;BME280;21656;46.054;13.614;2023-01-28T10:42:39;100884.75;;;7.10;54.73
35553;BME280;21656;46.054;13.614;2023-01-28T10:45:20;100878.22;;;7.00;55.00
35553;BME280;21656;46.054;13.614;2023-01-28T10:47:55;100888.41;;;7.09;54.80
35553;BME280;21656;46.054;13.614;2023-01-28T10:50:26;100875.59;;;6.99;54.64
35553;BME280;21656;46.054;13.614;2023-01-28T10:52:57;100884.28;;;6.88;55.42
35553;BME280;21656;46.054;13.614;2023-01-28T10:55:26;100883.38;;;7.19;54.70
35553;BME280;21656;46.054;13.614;2023-01-28T10:57:53;100873.72;;;7.01;54.00
35553;BME280;21656;46.054;13.614;2023-01-28T11:02:47;100882.25;;;7.07;54.24
35553;BME280;21656;46.054;13.614;2023-01-28T11:05:18;100869.53;;;7.11;54.11
35553;BME280;21656;46.054;13.614;2023-01-28T11:07:45;100879.25;;;6.98;54.15
35553;BME280;21656;46.054;13.614;2023-01-28T11:10:25;100872.88;;;6.84;54.76
35553;BME280;21656;46.054;13.614;2023-01-28T11:12:54;100877.63;;;6.95;53.93
35553;BME280;21656;46.054;13.614;2023-01-28T11:15:20;100870.69;;;7.07;54.88
35553;BME280;21656;46.054;13.614;2023-01-28T11:17:49;100870.19;;;7.30;53.48
35553;BME280;21656;46.054;13.614;2023-01-28T11:20:21;100862.59;;;7.67;52.50
35553;BME280;21656;46.054;13.614;2023-01-28T11:22:49;100863.06;;;8.02;51.33
35553;BME280;21656;46.054;13.614;2023-01-28T11:27:53;100862.13;;;7.89;51.11
35553;BME280;21656;46.054;13.614;2023-01-28T11:30:39;100855.31;;;7.84;51.72
35553;BME280;21656;46.054;13.614;2023-01-28T11:33:58;100849.84;;;7.71;51.33
35553;BME280;21656;46.054;13.614;2023-01-28T11:36:12;100849.47;;;7.63;51.29
35553;BME280;21656;46.054;13.614;2023-01-28T11:38:48;100854.81;;;7.48;51.89
35553;BME280;21656;46.054;13.614;2023-01-28T11:41:15;100854.81;;;7.48;52.48
35553;BME280;21656;46.054;13.614;2023-01-28T11:43:41;100849.13;;;7.24;52.63
35553;BME280;21656;46.054;13.614;2023-01-28T11:54:18;100841.81;;;7.12;52.98
35553;BME280;21656;46.054;13.614;2023-01-28T11:57:13;100844.63;;;6.94;53.97
35553;BME280;21656;46.054;13.614;2023-01-28T12:02:50;100840.47;;;7.05;52.83
35553;BME280;21656;46.054;13.614;2023-01-28T12:14:56;100829.00;;;6.87;53.44
35553;BME280;21656;46.054;13.614;2023-01-28T12:28:52;100829.38;;;7.11;53.33
35553;BME280;21656;46.054;13.614;2023-01-28T12:37:21;100822.50;;;6.91;54.41
35553;BME280;21656;46.054;13.614;2023-01-28T12:42:43;100821.25;;;6.82;53.89
35553;BME280;21656;46.054;13.614;2023-01-28T12:45:17;100821.84;;;6.87;53.98
35553;BME280;21656;46.054;13.614;2023-01-28T12:48:00;100822.28;;;6.80;55.16
35553;BME280;21656;46.054;13.614;2023-01-28T12:50:32;100815.56;;;6.72;55.10
35553;BME280;21656;46.054;13.614;2023-01-28T12:53:04;100817.13;;;6.77;54.43
35553;BME280;21656;46.054;13.614;2023-01-28T12:55:41;100813.47;;;6.78;55.22
35553;BME280;21656;46.054;13.614;2023-01-28T12:58:24;100825.63;;;6.83;55.08
35553;BME280;21656;46.054;13.614;2023-01-28T13:01:00;100822.44;;;6.92;54.75
35553;BME280;21656;46.054;13.614;2023-01-28T13:03:54;100824.25;;;6.92;55.04
35553;BME280;21656;46.054;13.614;2023-01-28T13:06:30;100815.13;;;6.80;54.04
35553;BME280;21656;46.054;13.614;2023-01-28T13:09:01;100821.44;;;6.79;55.07
35553;BME280;21656;46.054;13.614;2023-01-28T13:11:34;100815.72;;;6.85;54.46
35553;BME280;21656;46.054;13.614;2023-01-28T13:14:01;100825.47;;;6.86;55.38
35553;BME280;21656;46.054;13.614;2023-01-28T13:16:27;100824.88;;;6.81;55.25
35553;BME280;21656;46.054;13.614;2023-01-28T13:19:07;100826.00;;;6.77;54.66
35553;BME280;21656;46.054;13.614;2023-01-28T13:21:34;100824.44;;;6.73;55.17
35553;BME280;21656;46.054;13.614;2023-01-28T13:26:29;100833.88;;;6.64;55.76
35553;BME280;21656;46.054;13.614;2023-01-28T13:29:32;100839.41;;;6.61;55.25
35553;BME280;21656;46.054;13.614;2023-01-28T13:32:00;100838.91;;;6.55;55.32
35553;BME280;21656;46.054;13.614;2023-01-28T13:34:29;100834.22;;;6.58;56.12
35553;BME280;21656;46.054;13.614;2023-01-28T13:36:59;100832.16;;;6.47;56.51
35553;BME280;21656;46.054;13.614;2023-01-28T13:39:27;100837.00;;;6.57;56.63
35553;BME280;21656;46.054;13.614;2023-01-28T13:42:19;100839.16;;;6.50;55.89
35553;BME280;21656;46.054;13.614;2023-01-28T13:44:46;100846.06;;;6.54;56.71
35553;BME280;21656;46.054;13.614;2023-01-28T13:47:20;100844.94;;;6.58;56.10
35553;BME280;21656;46.054;13.614;2023-01-28T13:49:56;100852.69;;;6.63;55.90
35553;BME280;21656;46.054;13.614;2023-01-28T13:52:28;100855.56;;;6.60;56.61
35553;BME280;21656;46.054;13.614;2023-01-28T13:55:20;100852.03;;;6.59;56.35
35553;BME280;21656;46.054;13.614;2023-01-28T13:58:11;100850.03;;;6.63;56.70
35553;BME280;21656;46.054;13.614;2023-01-28T14:01:23;100859.72;;;6.49;56.69
35553;BME280;21656;46.054;13.614;2023-01-28T14:12:46;100870.06;;;6.24;57.81
35553;BME280;21656;46.054;13.614;2023-01-28T14:17:56;100864.59;;;6.10;57.78
35553;BME280;21656;46.054;13.614;2023-01-28T14:20:32;100868.66;;;6.01;57.98
35553;BME280;21656;46.054;13.614;2023-01-28T14:23:17;100871.84;;;6.07;57.97
35553;BME280;21656;46.054;13.614;2023-01-28T14:28:57;100871.16;;;6.04;58.32
35553;BME280;21656;46.054;13.614;2023-01-28T14:31:30;100875.91;;;6.15;58.52
35553;BME280;21656;46.054;13.614;2023-01-28T14:34:04;100880.88;;;6.05;58.66
35553;BME280;21656;46.054;13.614;2023-01-28T14:36:30;100882.09;;;5.99;58.16
35553;BME280;21656;46.054;13.614;2023-01-28T14:38:56;100881.00;;;6.03;58.21
35553;BME280;21656;46.054;13.614;2023-01-28T14:41:25;100876.25;;;6.08;57.90
35553;BME280;21656;46.054;13.614;2023-01-28T14:43:53;100886.91;;;5.93;58.61
35553;BME280;21656;46.054;13.614;2023-01-28T14:46:44;100888.06;;;5.87;59.32
35553;BME280;21656;46.054;13.614;2023-01-28T15:00:16;100907.06;;;5.65;59.80
35553;BME280;21656;46.054;13.614;2023-01-28T15:02:43;100901.94;;;5.60;59.94
35553;BME280;21656;46.054;13.614;2023-01-28T15:05:14;100915.16;;;5.63;59.67
35553;BME280;21656;46.054;13.614;2023-01-28T15:07:45;100909.56;;;5.51;59.78
35553;BME280;21656;46.054;13.614;2023-01-28T15:10:19;100919.16;;;5.55;60.04
35553;BME280;21656;46.054;13.614;2023-01-28T15:12:59;100914.91;;;5.51;60.66
35553;BME280;21656;46.054;13.614;2023-01-28T15:15:47;100916.81;;;5.49;60.66
35553;BME280;21656;46.054;13.614;2023-01-28T15:18:18;100921.75;;;5.39;60.83
35553;BME280;21656;46.054;13.614;2023-01-28T15:20:46;100928.66;;;5.43;60.90
35553;BME280;21656;46.054;13.614;2023-01-28T15:23:27;100928.09;;;5.36;60.96
35553;BME280;21656;46.054;13.614;2023-01-28T15:25:54;100932.81;;;5.31;60.80
35553;BME280;21656;46.054;13.614;2023-01-28T15:28:27;100932.81;;;5.14;61.79
35553;BME280;21656;46.054;13.614;2023-01-28T15:30:55;100940.75;;;5.15;61.07
35553;BME280;21656;46.054;13.614;2023-01-28T15:33:21;100947.69;;;5.19;61.38
35553;BME280;21656;46.054;13.614;2023-01-28T15:35:52;100956.28;;;5.07;61.68
35553;BME280;21656;46.054;13.614;2023-01-28T15:38:19;100962.16;;;4.96;62.35
35553;BME280;21656;46.054;13.614;2023-01-28T15:40:53;100948.88;;;4.95;62.39
35553;BME280;21656;46.054;13.614;2023-01-28T15:43:22;100962.53;;;4.89;62.68
35553;BME280;21656;46.054;13.614;2023-01-28T15:45:51;100957.97;;;4.91;62.84
35553;BME280;21656;46.054;13.614;2023-01-28T15:48:20;100959.41;;;4.98;63.67
35553;BME280;21656;46.054;13.614;2023-01-28T15:50:46;100968.34;;;4.78;64.09
35553;BME280;21656;46.054;13.614;2023-01-28T15:53:12;100962.47;;;4.71;63.92
35553;BME280;21656;46.054;13.614;2023-01-28T15:55:42;100966.78;;;4.74;64.93
35553;BME280;21656;46.054;13.614;2023-01-28T15:58:16;100964.69;;;4.62;65.33
35553;BME280;21656;46.054;13.614;2023-01-28T16:00:43;100967.28;;;4.63;65.70
35553;BME280;21656;46.054;13.614;2023-01-28T16:03:09;100965.78;;;4.57;65.53
35553;BME280;21656;46.054;13.614;2023-01-28T16:05:36;100971.84;;;4.61;65.64
35553;BME280;21656;46.054;13.614;2023-01-28T16:08:26;100973.78;;;4.57;65.50
35553;BME280;21656;46.054;13.614;2023-01-28T16:10:54;100974.56;;;4.60;65.94
35553;BME280;21656;46.054;13.614;2023-01-28T16:13:24;100981.88;;;4.56;65.90
35553;BME280;21656;46.054;13.614;2023-01-28T16:15:52;100985.53;;;4.53;65.89
35553;BME280;21656;46.054;13.614;2023-01-28T16:18:28;100988.31;;;4.50;65.66
35553;BME280;21656;46.054;13.614;2023-01-28T16:20:56;100995.22;;;4.56;66.33
35553;BME280;21656;46.054;13.614;2023-01-28T16:23:24;100997.13;;;4.52;66.12
35553;BME280;21656;46.054;13.614;2023-01-28T16:25:59;100996.47;;;4.47;65.51
35553;BME280;21656;46.054;13.614;2023-01-28T16:28:25;100992.97;;;4.47;66.19
35553;BME280;21656;46.054;13.614;2023-01-28T16:30:50;100994.31;;;4.37;66.49
35553;BME280;21656;46.054;13.614;2023-01-28T16:33:20;101013.19;;;4.32;67.30
35553;BME280;21656;46.054;13.614;2023-01-28T16:35:47;101009.59;;;4.33;67.65
35553;BME280;21656;46.054;13.614;2023-01-28T16:38:13;101020.66;;;4.24;67.92
35553;BME280;21656;46.054;13.614;2023-01-28T16:40:42;101019.25;;;4.15;68.46
35553;BME280;21656;46.054;13.614;2023-01-28T16:43:12;101020.81;;;4.21;68.30
35553;BME280;21656;46.054;13.614;2023-01-28T16:45:40;101020.66;;;4.24;68.47
35553;BME280;21656;46.054;13.614;2023-01-28T16:48:05;101014.34;;;4.26;68.68
35553;BME280;21656;46.054;13.614;2023-01-28T16:50:32;101023.03;;;4.30;68.37
35553;BME280;21656;46.054;13.614;2023-01-28T16:52:58;101033.38;;;4.38;68.08
35553;BME280;21656;46.054;13.614;2023-01-28T16:55:24;101025.72;;;4.30;68.83
35553;BME280;21656;46.054;13.614;2023-01-28T16:57:52;101032.34;;;4.21;69.74
35553;BME280;21656;46.054;13.614;2023-01-28T17:00:24;101036.88;;;4.19;68.98
35553;BME280;21656;46.054;13.614;2023-01-28T17:02:51;101037.25;;;4.10;70.24
35553;BME280;21656;46.054;13.614;2023-01-28T17:05:19;101047.88;;;4.11;69.89
35553;BME280;21656;46.054;13.614;2023-01-28T17:07:46;101037.50;;;4.05;68.75
35553;BME280;21656;46.054;13.614;2023-01-28T17:10:14;101036.88;;;3.99;70.17
35553;BME280;21656;46.054;13.614;2023-01-28T17:12:41;101039.25;;;4.05;69.69
35553;BME280;21656;46.054;13.614;2023-01-28T17:15:07;101037.91;;;4.15;67.78
35553;BME280;21656;46.054;13.614;2023-01-28T17:17:33;101047.06;;;4.09;68.62
35553;BME280;21656;46.054;13.614;2023-01-28T17:19:58;101043.94;;;4.00;71.65
35553;BME280;21656;46.054;13.614;2023-01-28T17:22:24;101044.91;;;3.77;72.14
35553;BME280;21656;46.054;13.614;2023-01-28T17:24:49;101051.19;;;3.76;73.02
35553;BME280;21656;46.054;13.614;2023-01-28T17:27:15;101053.38;;;3.66;74.30
35553;BME280;21656;46.054;13.614;2023-01-28T17:29:40;101055.81;;;3.50;77.09
35553;BME280;21656;46.054;13.614;2023-01-28T17:32:06;101054.06;;;3.49;76.06
35553;BME280;21656;46.054;13.614;2023-01-28T17:34:31;101058.69;;;3.44;77.20
35553;BME280;21656;46.054;13.614;2023-01-28T17:36:57;101061.94;;;3.30;79.90
35553;BME280;21656;46.054;13.614;2023-01-28T17:39:23;101054.69;;;3.12;80.55
35553;BME280;21656;46.054;13.614;2023-01-28T17:41:49;101073.88;;;3.20;77.90
35553;BME280;21656;46.054;13.614;2023-01-28T17:44:17;101073.75;;;3.23;81.25
35553;BME280;21656;46.054;13.614;2023-01-28T17:46:43;101077.22;;;3.25;78.70
35553;BME280;21656;46.054;13.614;2023-01-28T17:49:11;101079.09;;;3.45;75.13
35553;BME280;21656;46.054;13.614;2023-01-28T17:51:37;101085.41;;;3.42;78.12
35553;BME280;21656;46.054;13.614;2023-01-28T17:54:02;101086.53;;;3.37;79.38
35553;BME280;21656;46.054;13.614;2023-01-28T17:56:28;101086.72;;;3.32;79.88
35553;BME280;21656;46.054;13.614;2023-01-28T17:58:56;101094.31;;;3.19;81.55
35553;BME280;21656;46.054;13.614;2023-01-28T18:01:23;101093.34;;;3.22;81.28
35553;BME280;21656;46.054;13.614;2023-01-28T18:03:49;101093.56;;;3.16;80.55
35553;BME280;21656;46.054;13.614;2023-01-28T18:06:15;101096.50;;;3.08;82.40
35553;BME280;21656;46.054;13.614;2023-01-28T18:08:41;101099.44;;;3.02;81.36
35553;BME280;21656;46.054;13.614;2023-01-28T18:11:07;101094.78;;;3.07;80.16
35553;BME280;21656;46.054;13.614;2023-01-28T18:13:35;101101.53;;;3.16;79.43
35553;BME280;21656;46.054;13.614;2023-01-28T18:16:00;101101.00;;;3.30;77.15
35553;BME280;21656;46.054;13.614;2023-01-28T18:18:27;101108.53;;;3.18;83.02
35553;BME280;21656;46.054;13.614;2023-01-28T18:20:57;101107.06;;;2.88;83.34
35553;BME280;21656;46.054;13.614;2023-01-28T18:23:22;101113.06;;;2.93;82.28
35553;BME280;21656;46.054;13.614;2023-01-28T18:25:48;101125.50;;;2.92;84.67
35553;BME280;21656;46.054;13.614;2023-01-28T18:28:13;101126.38;;;2.69;87.57
35553;BME280;21656;46.054;13.614;2023-01-28T18:30:39;101131.03;;;2.63;90.01
35553;BME280;21656;46.054;13.614;2023-01-28T18:33:04;101131.81;;;2.66;89.43
35553;BME280;21656;46.054;13.614;2023-01-28T18:35:30;101140.69;;;2.65;89.84
35553;BME280;21656;46.054;13.614;2023-01-28T18:37:58;101141.47;;;2.69;91.44
35553;BME280;21656;46.054;13.614;2023-01-28T18:40:28;101150.88;;;2.77;89.70
35553;BME280;21656;46.054;13.614;2023-01-28T18:42:53;101150.66;;;2.83;89.66
35553;BME280;21656;46.054;13.614;2023-01-28T18:45:19;101152.56;;;2.80;89.62
35553;BME280;21656;46.054;13.614;2023-01-28T18:47:44;101155.06;;;2.85;89.26
35553;BME280;21656;46.054;13.614;2023-01-28T18:50:11;101165.41;;;2.92;86.72
35553;BME280;21656;46.054;13.614;2023-01-28T18:52:36;101166.13;;;2.97;87.95
35553;BME280;21656;46.054;13.614;2023-01-28T18:55:02;101169.47;;;3.02;87.48
35553;BME280;21656;46.054;13.614;2023-01-28T18:57:27;101168.91;;;2.94;86.58
35553;BME280;21656;46.054;13.614;2023-01-28T18:59:53;101168.66;;;3.00;87.29
35553;BME280;21656;46.054;13.614;2023-01-28T19:02:18;101175.63;;;3.04;87.78
35553;BME280;21656;46.054;13.614;2023-01-28T19:04:43;101174.97;;;2.98;86.17
35553;BME280;21656;46.054;13.614;2023-01-28T19:07:09;101180.16;;;3.01;87.08
35553;BME280;21656;46.054;13.614;2023-01-28T19:09:34;101179.78;;;3.12;86.01
35553;BME280;21656;46.054;13.614;2023-01-28T19:12:00;101181.38;;;3.16;84.50
35553;BME280;21656;46.054;13.614;2023-01-28T19:14:26;101188.47;;;3.17;85.39
35553;BME280;21656;46.054;13.614;2023-01-28T19:16:51;101189.91;;;3.25;86.42
35553;BME280;21656;46.054;13.614;2023-01-28T19:19:16;101195.34;;;3.22;88.67
35553;BME280;21656;46.054;13.614;2023-01-28T19:21:42;101200.44;;;3.29;90.03
35553;BME280;21656;46.054;13.614;2023-01-28T19:24:11;101198.56;;;3.31;90.33
35553;BME280;21656;46.054;13.614;2023-01-28T19:26:41;101207.88;;;3.19;91.34
35553;BME280;21656;46.054;13.614;2023-01-28T19:29:16;101199.13;;;3.17;90.05
35553;BME280;21656;46.054;13.614;2023-01-28T19:31:42;101209.56;;;3.21;89.75
35553;BME280;21656;46.054;13.614;2023-01-28T19:34:09;101208.53;;;3.25;88.84
35553;BME280;21656;46.054;13.614;2023-01-28T19:36:35;101213.81;;;3.27;89.66
35553;BME280;21656;46.054;13.614;2023-01-28T19:39:07;101213.13;;;3.22;90.02
35553;BME280;21656;46.054;13.614;2023-01-28T19:41:34;101212.75;;;3.08;93.05
35553;BME280;21656;46.054;13.614;2023-01-28T19:44:01;101217.22;;;3.07;86.64
35553;BME280;21656;46.054;13.614;2023-01-28T19:46:27;101213.41;;;3.14;86.00
35553;BME280;21656;46.054;13.614;2023-01-28T19:48:53;101222.38;;;3.12;85.13
35553;BME280;21656;46.054;13.614;2023-01-28T19:51:19;101223.97;;;3.16;85.97
35553;BME280;21656;46.054;13.614;2023-01-28T19:53:49;101225.66;;;3.18;85.32
35553;BME280;21656;46.054;13.614;2023-01-28T19:56:15;101224.56;;;3.24;85.00
35553;BME280;21656;46.054;13.614;2023-01-28T19:58:43;101222.78;;;3.24;85.43
35553;BME280;21656;46.054;13.614;2023-01-28T20:01:13;101232.44;;;3.27;83.84
35553;BME280;21656;46.054;13.614;2023-01-28T20:03:39;101236.25;;;3.20;85.41
35553;BME280;21656;46.054;13.614;2023-01-28T20:06:07;101240.31;;;3.07;87.09
35553;BME280;21656;46.054;13.614;2023-01-28T20:08:35;101229.47;;;3.11;88.03
35553;BME280;21656;46.054;13.614;2023-01-28T20:11:13;101227.84;;;3.07;88.42
35553;BME280;21656;46.054;13.614;2023-01-28T20:13:41;101235.72;;;3.10;90.48
35553;BME280;21656;46.054;13.614;2023-01-28T20:16:14;101238.50;;;3.07;90.94
35553;BME280;21656;46.054;13.614;2023-01-28T20:18:47;101235.88;;;3.06;92.66
35553;BME280;21656;46.054;13.614;2023-01-28T20:21:14;101236.81;;;3.04;92.46
35553;BME280;21656;46.054;13.614;2023-01-28T20:23:39;101242.34;;;2.98;93.29
35553;BME280;21656;46.054;13.614;2023-01-28T20:26:05;101251.38;;;2.94;93.64
35553;BME280;21656;46.054;13.614;2023-01-28T20:28:30;101252.41;;;2.90;95.03
35553;BME280;21656;46.054;13.614;2023-01-28T20:30:56;101248.50;;;2.75;95.33
35553;BME280;21656;46.054;13.614;2023-01-28T20:33:22;101246.53;;;2.80;95.00